createdAt,value
2023-03-15T00:00:56.573Z,60.13
2023-03-15T00:02:58.721Z,60.26
2023-03-15T00:05:01.367Z,60.31
2023-03-15T00:07:04.915Z,59.65
2023-03-15T00:09:07.099Z,59.84
2023-03-15T00:11:09.869Z,59.90
2023-03-15T00:13:13.322Z,60.14
2023-03-15T00:15:15.923Z,59.64
2023-03-15T00:17:18.015Z,60.18
2023-03-15T00:19:21.269Z,59.96
2023-03-15T00:21:24.478Z,60.18
2023-03-15T00:23:27.110Z,60.16
2023-03-15T00:25:30.058Z,60.19
2023-03-15T00:27:32.385Z,59.86
2023-03-15T00:29:34.926Z,60.29
2023-03-15T00:31:37.279Z,60.75
2023-03-15T00:33:39.746Z,59.66
2023-03-15T00:35:43.796Z,60.10
2023-03-15T00:37:46.867Z,60.39
2023-03-15T00:39:49.304Z,59.83
2023-03-15T00:41:57.238Z,60.01
2023-03-15T00:44:00.367Z,59.62
2023-03-15T00:46:04.754Z,59.81
2023-03-15T00:48:07.167Z,60.35
2023-03-15T00:50:10.525Z,59.92
2023-03-15T00:52:13.069Z,59.43
2023-03-15T00:54:15.410Z,60.15
2023-03-15T00:56:21.863Z,59.25
2023-03-15T00:58:26.459Z,59.28
2023-03-15T01:00:29.799Z,60.65
2023-03-15T01:02:32.115Z,60.35
2023-03-15T01:04:36.114Z,59.55
2023-03-15T01:06:38.699Z,59.34
2023-03-15T01:08:41.557Z,58.55
2023-03-15T01:10:43.869Z,58.37
2023-03-15T01:12:46.285Z,59.34
2023-03-15T01:14:48.616Z,59.20
2023-03-15T01:16:51.805Z,59.22
2023-03-15T01:18:54.528Z,59.00
2023-03-15T01:20:57.419Z,59.22
2023-03-15T01:23:00.179Z,60.03
2023-03-15T01:25:02.732Z,58.99
2023-03-15T01:27:05.121Z,59.15
2023-03-15T01:29:08.302Z,59.23
2023-03-15T01:31:26.505Z,59.37
2023-03-15T01:33:29.551Z,60.30
2023-03-15T01:35:32.324Z,59.73
2023-03-15T01:37:35.442Z,59.01
2023-03-15T01:39:38.167Z,59.23
2023-03-15T01:41:40.401Z,59.64
2023-03-15T01:43:47.583Z,59.77
2023-03-15T01:45:59.968Z,59.56
2023-03-15T01:48:03.485Z,60.98
2023-03-15T01:50:11.903Z,60.75
2023-03-15T01:52:21.705Z,60.07
2023-03-15T01:54:40.205Z,59.92
2023-03-15T01:56:48.266Z,60.72
2023-03-15T01:58:53.097Z,59.16
2023-03-15T02:00:56.740Z,59.61
2023-03-15T02:03:15.092Z,59.77
2023-03-15T02:05:29.171Z,59.38
2023-03-15T02:07:35.194Z,60.01
2023-03-15T02:09:42.711Z,59.93
2023-03-15T02:11:45.424Z,59.79
2023-03-15T02:13:49.822Z,59.95
2023-03-15T02:15:53.745Z,60.29
2023-03-15T02:18:11.618Z,60.08
2023-03-15T02:20:27.772Z,59.71
2023-03-15T02:22:59.490Z,59.77
2023-03-15T02:25:08.265Z,59.55
2023-03-15T02:27:11.264Z,59.78
2023-03-15T02:29:14.673Z,59.97
2023-03-15T02:31:18.280Z,59.49
2023-03-15T02:33:34.410Z,59.79
2023-03-15T02:35:36.777Z,59.84
2023-03-15T02:37:38.987Z,59.79
2023-03-15T02:39:41.185Z,59.72
2023-03-15T02:41:48.505Z,59.90
2023-03-15T02:43:54.511Z,59.51
2023-03-15T02:45:57.057Z,59.79
2023-03-15T02:48:02.142Z,59.46
2023-03-15T02:50:05.548Z,59.76
2023-03-15T02:52:08.699Z,59.39
2023-03-15T02:54:11.080Z,59.20
2023-03-15T02:56:14.579Z,60.33
2023-03-15T02:58:24.044Z,60.30
2023-03-15T03:00:26.482Z,60.10
2023-03-15T03:02:29.339Z,59.28
2023-03-15T03:04:31.758Z,60.53
2023-03-15T03:06:37.066Z,59.64
2023-03-15T03:08:41.258Z,59.91
2023-03-15T03:10:50.357Z,59.72
2023-03-15T03:12:53.817Z,59.91
2023-03-15T03:15:05.024Z,59.53
2023-03-15T03:17:07.438Z,59.95
2023-03-15T03:19:12.968Z,60.22
2023-03-15T03:21:17.295Z,60.00
2023-03-15T03:23:19.836Z,60.17
2023-03-15T03:25:27.484Z,59.88
2023-03-15T03:27:30.351Z,60.50
2023-03-15T03:29:35.221Z,60.28
2023-03-15T03:31:39.767Z,59.74
2023-03-15T03:33:42.266Z,59.99
2023-03-15T03:35:44.788Z,60.50
2023-03-15T03:37:47.702Z,59.50
2023-03-15T03:39:58.754Z,60.18
2023-03-15T03:42:01.427Z,59.74
2023-03-15T03:44:04.430Z,59.56
2023-03-15T03:46:07.515Z,59.89
2023-03-15T03:48:14.333Z,59.72
2023-03-15T03:50:16.848Z,59.63
2023-03-15T03:52:19.466Z,59.98
2023-03-15T03:54:23.882Z,60.03
2023-03-15T03:56:26.235Z,59.38
2023-03-15T03:58:28.490Z,59.19
2023-03-15T04:00:36.338Z,59.16
2023-03-15T04:02:42.839Z,59.93
2023-03-15T04:04:45.993Z,59.55
2023-03-15T04:06:54.780Z,59.19
2023-03-15T04:09:04.454Z,59.34
2023-03-15T04:11:17.857Z,59.61
2023-03-15T04:13:26.555Z,58.56
2023-03-15T04:15:32.020Z,60.01
2023-03-15T04:17:34.905Z,59.40
2023-03-15T04:19:37.440Z,59.27
2023-03-15T04:21:47.697Z,59.02
2023-03-15T04:24:18.949Z,60.08
2023-03-15T04:26:58.104Z,59.34
2023-03-15T04:29:19.328Z,59.92
2023-03-15T04:31:50.908Z,60.06
2023-03-15T04:34:03.106Z,59.74
2023-03-15T04:36:31.252Z,59.62
2023-03-15T04:39:07.763Z,60.14
2023-03-15T04:41:28.538Z,59.69
2023-03-15T04:43:54.600Z,59.77
2023-03-15T04:46:15.549Z,60.09
2023-03-15T04:48:36.980Z,60.06
2023-03-15T04:50:42.380Z,60.06
2023-03-15T04:53:07.660Z,59.83
2023-03-15T05:00:39.479Z,60.10
2023-03-15T05:03:12.613Z,60.36
2023-03-15T05:05:38.202Z,60.33
2023-03-15T05:07:55.770Z,61.00
2023-03-15T05:10:07.561Z,59.49
2023-03-15T05:12:20.678Z,60.45
2023-03-15T05:14:41.816Z,60.42
2023-03-15T05:17:10.549Z,60.22
2023-03-15T05:19:46.771Z,60.20
2023-03-15T05:22:15.015Z,60.33
2023-03-15T05:24:47.238Z,61.09
2023-03-15T05:27:13.943Z,61.01
2023-03-15T05:29:18.603Z,60.61
2023-03-15T05:31:52.650Z,60.99
2023-03-15T05:34:04.896Z,60.43
2023-03-15T05:36:18.717Z,60.39
2023-03-15T05:38:43.978Z,61.13
2023-03-15T05:41:18.387Z,60.82
2023-03-15T05:43:21.117Z,60.76
2023-03-15T05:45:54.285Z,60.27
2023-03-15T05:48:02.620Z,61.12
2023-03-15T05:50:20.977Z,60.52
2023-03-15T05:55:19.214Z,60.53
2023-03-15T05:57:32.408Z,59.84
2023-03-15T05:59:52.677Z,59.85
2023-03-15T06:02:19.024Z,60.15
2023-03-15T06:04:34.950Z,59.88
2023-03-15T06:06:38.421Z,60.13
2023-03-15T06:08:43.150Z,59.91
2023-03-15T06:10:46.129Z,60.18
2023-03-15T06:12:48.699Z,60.18
2023-03-15T06:14:52.614Z,59.90
2023-03-15T06:16:55.691Z,59.58
2023-03-15T06:18:59.457Z,59.53
2023-03-15T06:21:01.748Z,60.01
2023-03-15T06:23:04.174Z,59.67
2023-03-15T06:25:15.162Z,59.44
2023-03-15T06:27:22.541Z,59.46
2023-03-15T06:29:27.784Z,58.35
2023-03-15T06:31:32.502Z,59.74
2023-03-15T06:33:40.923Z,59.89
2023-03-15T06:35:47.135Z,59.73
2023-03-15T06:37:50.461Z,59.52
2023-03-15T06:39:54.008Z,58.99
2023-03-15T06:41:58.806Z,59.36
2023-03-15T06:44:03.627Z,59.15
2023-03-15T06:46:05.966Z,59.02
2023-03-15T06:48:09.078Z,59.08
2023-03-15T06:50:11.973Z,58.70
2023-03-15T06:52:14.314Z,57.66
2023-03-15T06:54:16.825Z,57.99
2023-03-15T06:56:19.940Z,56.93
2023-03-15T06:58:22.803Z,57.10
2023-03-15T07:00:25.423Z,55.56
2023-03-15T07:02:28.197Z,56.96
2023-03-15T07:04:32.085Z,56.39
2023-03-15T07:06:34.761Z,55.95
2023-03-15T07:08:37.400Z,56.17
2023-03-15T07:10:39.915Z,55.75
2023-03-15T07:12:42.462Z,55.38
2023-03-15T07:14:46.919Z,55.33
2023-03-15T07:16:49.736Z,55.96
2023-03-15T07:18:56.058Z,55.79
2023-03-15T07:20:59.809Z,54.90
2023-03-15T07:23:02.490Z,54.59
2023-03-15T07:25:07.989Z,54.58
2023-03-15T07:27:15.681Z,55.36
2023-03-15T07:29:19.011Z,53.83
2023-03-15T07:31:21.559Z,54.04
2023-03-15T07:33:25.572Z,53.78
2023-03-15T07:35:28.161Z,54.21
2023-03-15T07:37:30.780Z,54.60
2023-03-15T07:39:33.037Z,54.92
2023-03-15T07:41:35.287Z,54.69
2023-03-15T07:44:05.213Z,53.92
2023-03-15T07:46:08.289Z,54.54
2023-03-15T07:48:11.379Z,53.47
2023-03-15T07:50:16.900Z,53.63
2023-03-15T07:52:21.639Z,54.15
2023-03-15T07:54:24.015Z,53.80
2023-03-15T07:56:26.509Z,54.09
2023-03-15T07:58:29.117Z,53.10
2023-03-15T08:00:31.761Z,53.57
2023-03-15T08:02:34.136Z,53.58
2023-03-15T08:04:37.076Z,53.28
2023-03-15T08:06:39.415Z,53.85
2023-03-15T08:08:42.514Z,53.66
2023-03-15T08:10:45.754Z,53.11
2023-03-15T08:12:49.176Z,52.58
2023-03-15T08:14:51.920Z,52.11
2023-03-15T08:16:54.477Z,52.47
2023-03-15T08:18:57.328Z,52.74
2023-03-15T08:21:00.132Z,52.54
2023-03-15T08:23:02.999Z,51.45
2023-03-15T08:25:06.542Z,52.17
2023-03-15T08:27:09.723Z,52.52
2023-03-15T08:29:12.510Z,53.17
2023-03-15T08:31:15.291Z,50.95
2023-03-15T08:33:17.978Z,53.40
2023-03-15T08:35:22.779Z,52.89
2023-03-15T08:37:25.650Z,51.72
2023-03-15T08:39:28.459Z,52.05
2023-03-15T08:41:30.748Z,51.65
2023-03-15T08:43:33.593Z,51.97
2023-03-15T08:45:56.611Z,50.23
2023-03-15T08:48:01.119Z,49.61
2023-03-15T08:50:12.025Z,50.00
2023-03-15T08:52:15.672Z,49.72
2023-03-15T08:54:19.318Z,51.02
2023-03-15T08:56:21.850Z,50.73
2023-03-15T08:58:24.418Z,49.00
2023-03-15T09:00:27.479Z,47.94
2023-03-15T09:02:30.133Z,48.31
2023-03-15T09:04:33.988Z,48.14
2023-03-15T09:06:36.305Z,48.03
2023-03-15T09:08:38.993Z,48.56
2023-03-15T09:10:41.856Z,48.71
2023-03-15T09:12:50.438Z,47.68
2023-03-15T09:14:52.928Z,47.42
2023-03-15T09:16:55.593Z,47.42
2023-03-15T09:18:58.335Z,46.65
2023-03-15T09:21:02.078Z,47.57
2023-03-15T09:23:04.457Z,48.05
2023-03-15T09:25:11.216Z,48.72
2023-03-15T09:27:13.665Z,48.84
2023-03-15T09:29:16.173Z,47.96
2023-03-15T09:31:18.577Z,47.33
2023-03-15T09:33:22.837Z,48.38
2023-03-15T09:35:25.111Z,49.21
2023-03-15T09:37:29.007Z,47.77
2023-03-15T09:39:34.134Z,48.83
2023-03-15T09:41:51.138Z,48.32
2023-03-15T09:44:33.684Z,47.78
2023-03-15T09:46:43.465Z,48.23
2023-03-15T09:48:56.950Z,47.75
2023-03-15T09:51:06.754Z,46.34
2023-03-15T09:53:33.324Z,47.49
2023-03-15T09:55:36.042Z,48.50
2023-03-15T09:57:48.874Z,46.94
2023-03-15T09:59:54.698Z,47.15
2023-03-15T10:01:59.726Z,47.64
2023-03-15T10:04:17.069Z,47.52
2023-03-15T10:06:26.984Z,46.65
2023-03-15T10:08:30.176Z,46.66
2023-03-15T10:10:39.211Z,46.48
2023-03-15T10:12:51.923Z,46.24
2023-03-15T10:15:31.239Z,46.61
2023-03-15T10:17:44.897Z,46.84
2023-03-15T10:19:47.606Z,46.63
2023-03-15T10:22:01.933Z,48.30
2023-03-15T10:24:13.278Z,47.56
2023-03-15T10:26:23.299Z,46.92
2023-03-15T10:28:31.330Z,46.78
2023-03-15T10:30:38.782Z,46.78
2023-03-15T10:32:46.438Z,46.24
2023-03-15T10:34:56.368Z,46.19
2023-03-15T10:36:59.005Z,46.26
2023-03-15T10:39:01.558Z,46.59
2023-03-15T10:41:07.258Z,46.87
2023-03-15T10:43:24.384Z,46.26
2023-03-15T10:45:28.635Z,46.34
2023-03-15T10:47:32.332Z,45.80
2023-03-15T10:49:40.572Z,44.88
2023-03-15T10:51:48.942Z,44.97
2023-03-15T10:53:59.096Z,44.90
2023-03-15T10:56:08.270Z,44.31
2023-03-15T10:58:39.483Z,44.92
2023-03-15T11:00:51.046Z,45.00
2023-03-15T11:03:16.407Z,45.90
2023-03-15T11:05:20.220Z,45.67
2023-03-15T11:07:22.949Z,44.76
2023-03-15T11:09:27.501Z,43.61
2023-03-15T11:11:31.540Z,44.40
2023-03-15T11:13:36.560Z,44.15
2023-03-15T11:15:41.842Z,44.91
2023-03-15T11:17:47.944Z,45.59
2023-03-15T11:19:59.743Z,44.30
2023-03-15T11:22:03.073Z,46.41
2023-03-15T11:24:07.393Z,46.64
2023-03-15T11:26:32.266Z,45.79
2023-03-15T11:28:38.186Z,45.21
2023-03-15T11:30:41.910Z,44.95
2023-03-15T11:32:46.924Z,45.64
2023-03-15T11:35:30.926Z,45.25
2023-03-15T11:37:41.925Z,46.08
2023-03-15T11:39:53.746Z,45.27
2023-03-15T11:42:12.234Z,45.82
2023-03-15T11:44:14.724Z,46.21
2023-03-15T11:46:32.495Z,45.74
2023-03-15T11:49:25.785Z,45.74
2023-03-15T11:51:33.478Z,45.54
2023-03-15T11:53:41.993Z,45.73
2023-03-15T11:55:49.994Z,45.72
2023-03-15T11:57:53.759Z,44.03
2023-03-15T11:59:57.918Z,44.24
2023-03-15T12:02:24.435Z,44.62
2023-03-15T12:04:39.582Z,44.13
2023-03-15T12:06:44.646Z,43.00
2023-03-15T12:08:56.433Z,43.40
2023-03-15T12:11:03.216Z,43.95
2023-03-15T12:13:23.688Z,44.17
2023-03-15T12:15:29.156Z,43.73
2023-03-15T12:17:36.365Z,43.05
2023-03-15T12:19:40.977Z,43.22
2023-03-15T12:22:01.522Z,44.28
2023-03-15T12:24:15.646Z,42.82
2023-03-15T12:26:40.092Z,43.50
2023-03-15T12:28:53.054Z,43.68
2023-03-15T12:30:57.415Z,41.62
2023-03-15T12:33:02.902Z,43.84
2023-03-15T12:35:15.497Z,43.46
2023-03-15T12:37:23.870Z,43.85
2023-03-15T12:39:42.974Z,42.87
2023-03-15T12:41:47.244Z,43.36
2023-03-15T12:43:52.675Z,42.78
2023-03-15T12:45:55.283Z,42.29
2023-03-15T12:47:57.563Z,42.80
2023-03-15T12:50:34.927Z,42.52
2023-03-15T12:52:43.719Z,42.96
2023-03-15T12:55:09.286Z,43.28
2023-03-15T12:57:15.532Z,43.15
2023-03-15T12:59:29.447Z,42.99
2023-03-15T13:01:33.860Z,43.53
2023-03-15T13:03:37.145Z,42.40
2023-03-15T13:06:02.791Z,42.30
2023-03-15T13:08:18.187Z,43.07
2023-03-15T13:10:31.412Z,42.09
2023-03-15T13:12:43.008Z,43.28
2023-03-15T13:15:34.124Z,40.75
2023-03-15T13:17:36.927Z,42.23
2023-03-15T13:19:45.512Z,42.40
2023-03-15T13:22:16.466Z,42.44
2023-03-15T13:24:29.878Z,41.12
2023-03-15T13:26:53.939Z,40.93
2023-03-15T13:29:11.978Z,41.21
2023-03-15T13:31:24.199Z,40.97
2023-03-15T13:33:32.031Z,41.70
2023-03-15T13:35:43.178Z,41.95
2023-03-15T13:37:46.143Z,41.68
2023-03-15T13:39:54.372Z,41.08
2023-03-15T13:42:17.572Z,40.12
2023-03-15T13:44:24.236Z,40.67
2023-03-15T13:46:30.438Z,41.22
2023-03-15T13:48:40.372Z,41.14
2023-03-15T13:50:48.704Z,40.82
2023-03-15T13:52:51.441Z,41.61
2023-03-15T13:54:54.568Z,39.57
2023-03-15T13:57:17.789Z,40.44
2023-03-15T13:59:20.250Z,40.42
2023-03-15T14:01:23.968Z,41.49
2023-03-15T14:03:28.521Z,40.73
2023-03-15T14:05:36.770Z,40.32
2023-03-15T14:07:42.533Z,41.96
2023-03-15T14:09:45.035Z,41.87
2023-03-15T14:12:02.143Z,42.49
2023-03-15T14:14:24.720Z,42.34
2023-03-15T14:17:03.601Z,41.19
2023-03-15T14:19:26.037Z,41.78
2023-03-15T14:21:32.716Z,41.71
2023-03-15T14:23:42.706Z,42.18
2023-03-15T14:25:52.422Z,42.07
2023-03-15T14:27:55.049Z,42.28
2023-03-15T14:30:00.603Z,42.66
2023-03-15T14:32:08.920Z,42.88
2023-03-15T14:34:47.689Z,41.90
2023-03-15T14:36:53.237Z,42.64
2023-03-15T14:39:00.209Z,43.27
2023-03-15T14:41:27.694Z,42.24
2023-03-15T14:43:33.137Z,41.65
2023-03-15T14:45:39.896Z,41.81
2023-03-15T14:47:56.776Z,42.06
2023-03-15T14:50:00.166Z,41.44
2023-03-15T14:52:05.511Z,42.10
2023-03-15T14:54:13.541Z,42.07
2023-03-15T14:56:16.520Z,43.07
2023-03-15T14:58:22.502Z,43.19
2023-03-15T15:00:25.237Z,42.43
2023-03-15T15:02:28.676Z,43.13
2023-03-15T15:04:34.730Z,41.48
2023-03-15T15:06:38.147Z,42.78
2023-03-15T15:08:45.659Z,42.54
2023-03-15T15:10:50.369Z,42.00
2023-03-15T15:13:04.891Z,42.28
2023-03-15T15:15:20.038Z,42.54
2023-03-15T15:17:22.512Z,41.91
2023-03-15T15:19:24.888Z,42.53
2023-03-15T15:21:33.741Z,41.59
2023-03-15T15:23:54.797Z,41.59
2023-03-15T15:26:03.100Z,42.33
2023-03-15T15:28:05.839Z,41.58
2023-03-15T15:30:16.407Z,42.25
2023-03-15T15:32:19.342Z,42.05
2023-03-15T15:34:21.790Z,42.88
2023-03-15T15:36:29.901Z,42.93
2023-03-15T15:38:40.322Z,41.61
2023-03-15T15:40:42.948Z,42.48
2023-03-15T15:42:46.803Z,43.20
2023-03-15T15:44:49.259Z,42.30
2023-03-15T15:46:52.890Z,42.73
2023-03-15T15:48:55.617Z,43.26
2023-03-15T15:50:58.249Z,43.14
2023-03-15T15:53:04.637Z,42.91
2023-03-15T15:55:15.411Z,42.35
2023-03-15T15:57:22.713Z,43.00
2023-03-15T15:59:28.359Z,42.92
2023-03-15T16:01:31.928Z,43.97
2023-03-15T16:03:34.598Z,43.08
2023-03-15T16:05:36.998Z,43.29
2023-03-15T16:07:40.509Z,43.58
2023-03-15T16:09:45.702Z,43.07
2023-03-15T16:11:48.890Z,42.89
2023-03-15T16:13:56.397Z,44.02
2023-03-15T16:15:59.397Z,43.09
2023-03-15T16:18:02.428Z,43.67
2023-03-15T16:20:09.816Z,43.22
2023-03-15T16:22:13.098Z,43.81
2023-03-15T16:24:21.567Z,44.11
2023-03-15T16:26:24.019Z,44.28
2023-03-15T16:28:26.752Z,44.10
2023-03-15T16:30:32.916Z,44.02
2023-03-15T16:32:43.806Z,44.20
2023-03-15T16:34:48.740Z,44.52
2023-03-15T16:36:55.140Z,44.39
2023-03-15T16:38:57.635Z,43.96
2023-03-15T16:41:00.990Z,44.20
2023-03-15T16:43:06.455Z,44.52
2023-03-15T16:45:14.870Z,44.96
2023-03-15T16:47:17.600Z,44.57
2023-03-15T16:49:20.317Z,45.09
2023-03-15T16:51:24.011Z,45.04
2023-03-15T16:53:26.894Z,44.84
2023-03-15T16:55:34.388Z,45.57
2023-03-15T16:57:36.845Z,45.31
2023-03-15T16:59:39.179Z,45.94
2023-03-15T17:01:42.776Z,45.77
2023-03-15T17:03:45.601Z,46.05
2023-03-15T17:05:48.791Z,45.48
2023-03-15T17:07:53.850Z,45.70
2023-03-15T17:09:56.934Z,46.42
2023-03-15T17:11:59.318Z,46.52
2023-03-15T17:14:02.193Z,46.36
2023-03-15T17:16:04.756Z,46.67
2023-03-15T17:18:17.017Z,46.55
2023-03-15T17:20:22.932Z,46.97
2023-03-15T17:22:26.745Z,47.18
2023-03-15T17:24:29.524Z,47.30
2023-03-15T17:26:32.750Z,47.23
2023-03-15T17:28:35.009Z,47.09
2023-03-15T17:30:38.012Z,47.10
2023-03-15T17:32:40.626Z,47.62
2023-03-15T17:34:47.413Z,47.89
2023-03-15T17:36:50.319Z,47.41
2023-03-15T17:38:55.183Z,47.90
2023-03-15T17:40:58.516Z,48.80
2023-03-15T17:43:03.969Z,48.33
2023-03-15T17:45:21.809Z,48.13
2023-03-15T17:47:24.433Z,48.71
2023-03-15T17:49:26.972Z,49.10
2023-03-15T17:51:32.450Z,48.54
2023-03-15T17:53:35.151Z,49.29
2023-03-15T17:55:37.980Z,48.61
2023-03-15T17:57:42.970Z,48.98
2023-03-15T17:59:48.422Z,48.98
2023-03-15T18:01:51.629Z,49.84
2023-03-15T18:03:55.819Z,49.02
2023-03-15T18:06:02.012Z,49.45
2023-03-15T18:08:05.126Z,49.95
2023-03-15T18:10:08.643Z,50.16
2023-03-15T18:12:13.707Z,50.51
2023-03-15T18:14:19.204Z,50.69
2023-03-15T18:16:22.412Z,51.12
2023-03-15T18:18:25.314Z,51.54
2023-03-15T18:20:29.114Z,52.75
2023-03-15T18:22:31.715Z,51.89
2023-03-15T18:24:34.838Z,52.24
2023-03-15T18:26:37.442Z,52.28
2023-03-15T18:28:41.171Z,52.25
2023-03-15T18:30:45.200Z,52.69
2023-03-15T18:32:47.934Z,52.94
2023-03-15T18:34:51.544Z,52.04
2023-03-15T18:36:54.109Z,52.88
2023-03-15T18:38:57.474Z,53.09
2023-03-15T18:41:01.553Z,53.37
2023-03-15T18:43:05.877Z,53.42
2023-03-15T18:45:18.794Z,53.49
2023-03-15T18:47:21.444Z,53.80
2023-03-15T18:49:24.199Z,53.86
2023-03-15T18:51:28.739Z,54.30
2023-03-15T18:53:31.598Z,53.73
2023-03-15T18:55:35.274Z,54.61
2023-03-15T18:57:41.850Z,54.41
2023-03-15T18:59:44.445Z,54.51
2023-03-15T19:01:47.112Z,54.53
2023-03-15T19:03:50.864Z,54.36
2023-03-15T19:05:54.113Z,54.97
2023-03-15T19:07:57.231Z,54.70
2023-03-15T19:10:00.068Z,55.44
2023-03-15T19:12:06.099Z,54.09
2023-03-15T19:14:10.229Z,54.94
2023-03-15T19:16:12.626Z,55.39
2023-03-15T19:18:15.462Z,55.42
2023-03-15T19:20:21.975Z,56.00
2023-03-15T19:22:24.598Z,55.50
2023-03-15T19:24:28.610Z,54.77
2023-03-15T19:26:31.242Z,54.63
2023-03-15T19:28:34.237Z,54.93
2023-03-15T19:30:37.245Z,55.62
2023-03-15T19:32:43.105Z,57.23
2023-03-15T19:34:45.772Z,57.24
2023-03-15T19:36:48.641Z,56.97
2023-03-15T19:38:51.242Z,57.46
2023-03-15T19:40:57.224Z,57.59
2023-03-15T19:43:00.289Z,56.93
2023-03-15T19:45:03.750Z,57.42
2023-03-15T19:47:07.140Z,56.83
2023-03-15T19:49:09.750Z,57.02
2023-03-15T19:51:12.582Z,57.42
2023-03-15T19:53:15.077Z,56.74
2023-03-15T19:55:21.470Z,57.08
2023-03-15T19:57:24.328Z,57.85
2023-03-15T19:59:27.833Z,57.56
2023-03-15T20:01:30.543Z,57.43
2023-03-15T20:03:36.036Z,58.09
2023-03-15T20:05:39.083Z,57.85
2023-03-15T20:07:43.647Z,57.54
2023-03-15T20:09:46.332Z,58.19
2023-03-15T20:11:49.793Z,57.84
2023-03-15T20:13:53.422Z,57.94
2023-03-15T20:15:56.274Z,58.32
2023-03-15T20:17:59.043Z,59.64
2023-03-15T20:20:02.014Z,60.54
2023-03-15T20:22:05.265Z,61.42
2023-03-15T20:24:09.250Z,60.61
2023-03-15T20:26:14.637Z,60.32
2023-03-15T20:28:18.418Z,60.64
2023-03-15T20:30:21.671Z,62.37
2023-03-15T20:32:24.543Z,63.08
2023-03-15T20:34:27.166Z,62.10
2023-03-15T20:36:31.166Z,61.88
2023-03-15T20:38:37.742Z,61.87
2023-03-15T20:40:40.903Z,61.42
2023-03-15T20:42:44.364Z,61.44
2023-03-15T20:44:47.186Z,61.43
2023-03-15T20:46:52.974Z,61.72
2023-03-15T20:48:55.863Z,62.33
2023-03-15T20:50:58.608Z,63.29
2023-03-15T20:53:04.011Z,63.02
2023-03-15T20:55:08.248Z,62.55
2023-03-15T20:57:11.631Z,63.48
2023-03-15T20:59:14.766Z,63.36
2023-03-15T21:01:17.793Z,63.25
2023-03-15T21:03:20.453Z,63.33
2023-03-15T21:05:24.686Z,63.78
2023-03-15T21:07:27.302Z,63.47
2023-03-15T21:09:32.112Z,62.60
2023-03-15T21:11:34.621Z,62.43
2023-03-15T21:13:37.328Z,62.36
2023-03-15T21:15:47.332Z,63.06
2023-03-15T21:17:50.347Z,62.83
2023-03-15T21:19:53.815Z,62.14
2023-03-15T21:21:57.620Z,62.07
2023-03-15T21:24:02.684Z,62.37
2023-03-15T21:26:08.870Z,62.77
2023-03-15T21:28:12.141Z,62.59
2023-03-15T21:30:14.869Z,62.51
2023-03-15T21:32:17.244Z,62.76
2023-03-15T21:34:20.161Z,62.53
2023-03-15T21:36:22.922Z,61.81
2023-03-15T21:38:27.005Z,62.39
2023-03-15T21:40:29.741Z,63.43
2023-03-15T21:42:33.819Z,63.53
2023-03-15T21:44:37.848Z,63.44
2023-03-15T21:46:40.532Z,64.30
2023-03-15T21:48:42.807Z,63.64
2023-03-15T21:50:45.673Z,63.63
2023-03-15T21:52:48.460Z,63.53
2023-03-15T21:54:50.858Z,63.79
2023-03-15T21:56:53.618Z,62.99
2023-03-15T21:58:56.201Z,63.35
2023-03-15T22:01:05.287Z,62.60
2023-03-15T22:03:07.768Z,63.29
2023-03-15T22:05:13.988Z,63.16
2023-03-15T22:07:16.497Z,63.59
2023-03-15T22:09:20.337Z,64.25
2023-03-15T22:11:23.123Z,64.02
2023-03-15T22:13:26.775Z,64.04
2023-03-15T22:15:29.436Z,63.91
2023-03-15T22:17:32.131Z,64.36
2023-03-15T22:19:34.450Z,64.59
2023-03-15T22:21:36.788Z,64.30
2023-03-15T22:23:39.169Z,63.98
2023-03-15T22:25:41.633Z,63.96
2023-03-15T22:27:44.175Z,63.63
2023-03-15T22:29:46.458Z,63.99
2023-03-15T22:31:48.797Z,64.77
2023-03-15T22:33:51.602Z,65.23
2023-03-15T22:35:58.514Z,65.10
2023-03-15T22:38:00.958Z,64.59
2023-03-15T22:40:05.444Z,64.68
2023-03-15T22:42:07.958Z,64.87
2023-03-15T22:44:10.446Z,65.10
2023-03-15T22:46:13.192Z,66.52
2023-03-15T22:48:15.666Z,66.36
2023-03-15T22:50:18.029Z,65.78
2023-03-15T22:52:20.726Z,65.67
2023-03-15T22:54:22.881Z,65.42
2023-03-15T22:56:25.458Z,65.82
2023-03-15T22:58:27.854Z,65.23
2023-03-15T23:00:30.721Z,65.29
2023-03-15T23:02:33.279Z,65.66
2023-03-15T23:04:36.209Z,66.64
2023-03-15T23:06:38.471Z,66.91
2023-03-15T23:08:43.091Z,66.73
2023-03-15T23:10:45.657Z,66.90
2023-03-15T23:12:47.958Z,67.14
2023-03-15T23:14:50.515Z,66.71
2023-03-15T23:16:52.714Z,66.73
2023-03-15T23:18:55.332Z,67.32
2023-03-15T23:21:06.339Z,66.80
2023-03-15T23:23:09.120Z,67.45
2023-03-15T23:25:13.278Z,67.42
2023-03-15T23:27:15.843Z,68.19
2023-03-15T23:29:18.377Z,67.93
2023-03-15T23:31:21.189Z,68.11
2023-03-15T23:33:26.072Z,67.80
2023-03-15T23:35:30.038Z,67.65
2023-03-15T23:37:33.167Z,67.49
2023-03-15T23:39:37.388Z,68.21
2023-03-15T23:41:39.814Z,67.39
2023-03-15T23:43:42.170Z,67.10
2023-03-15T23:45:44.605Z,67.74
2023-03-15T23:47:47.010Z,68.08
2023-03-15T23:49:51.484Z,67.57
2023-03-15T23:51:57.436Z,67.90
2023-03-15T23:54:01.005Z,67.72
2023-03-15T23:56:03.439Z,67.55
2023-03-15T23:58:07.701Z,67.66
